Wayne, Pennsylvania
Current Conditions -  °F | °C
As of 12:55 PM on Friday 24 Oct 2014 (Local Time) from KLOM Reporting Station
Clear Clear  
Wind Chill: 66°   Ceiling: Unl
Heat Index: 66°   Visibility: 10mi
Dew Point: 45°   Wind: 5mph
Humidity: 46%   Direction: 340°NNW
Pressure: 29.84"   Gusts: NA
Location:  40.04°N, 75.39°W
Report Text: KLOM 241655Z AUTO 34004KT 10SM CLR 19/07 A2984 RMK AO1
Loading
Personal Weather Stations






























Interactive Weather Map
Tropical Storm Tracking
New forecast layout! Learn more

10-Day Weather Forecast

Advertisements
Track Severe Weather on mobile